sensor_id;sensor_type;location;lat;lon;timestamp;P1;durP1;ratioP1;P2;durP2;ratioP2
49460;SDS011;35355;49.198;-0.368;2022-09-21T00:00:39;3.20;;;0.63;;
49460;SDS011;35355;49.198;-0.368;2022-09-21T00:03:05;5.30;;;0.60;;
49460;SDS011;35355;49.198;-0.368;2022-09-21T00:05:31;4.78;;;0.73;;
49460;SDS011;35355;49.198;-0.368;2022-09-21T00:08:04;4.88;;;0.63;;
49460;SDS011;35355;49.198;-0.368;2022-09-21T00:10:31;2.70;;;0.50;;
49460;SDS011;35355;49.198;-0.368;2022-09-21T00:12:57;2.70;;;0.50;;
49460;SDS011;35355;49.198;-0.368;2022-09-21T00:15:23;5.50;;;0.50;;
49460;SDS011;35355;49.198;-0.368;2022-09-21T00:17:52;3.88;;;0.65;;
49460;SDS011;35355;49.198;-0.368;2022-09-21T00:20:18;7.85;;;1.70;;
49460;SDS011;35355;49.198;-0.368;2022-09-21T00:22:45;5.68;;;0.80;;
49460;SDS011;35355;49.198;-0.368;2022-09-21T00:25:11;2.95;;;0.60;;
49460;SDS011;35355;49.198;-0.368;2022-09-21T00:27:37;4.55;;;0.60;;
49460;SDS011;35355;49.198;-0.368;2022-09-21T00:30:03;2.70;;;0.60;;
49460;SDS011;35355;49.198;-0.368;2022-09-21T00:32:31;3.83;;;0.30;;
49460;SDS011;35355;49.198;-0.368;2022-09-21T00:34:57;5.45;;;0.68;;
49460;SDS011;35355;49.198;-0.368;2022-09-21T00:37:23;2.35;;;0.60;;
49460;SDS011;35355;49.198;-0.368;2022-09-21T00:39:48;1.27;;;0.45;;
49460;SDS011;35355;49.198;-0.368;2022-09-21T00:44:51;4.18;;;0.52;;
49460;SDS011;35355;49.198;-0.368;2022-09-21T00:47:21;2.25;;;0.60;;
49460;SDS011;35355;49.198;-0.368;2022-09-21T00:49:52;3.30;;;0.55;;
49460;SDS011;35355;49.198;-0.368;2022-09-21T00:52:21;3.92;;;0.30;;
49460;SDS011;35355;49.198;-0.368;2022-09-21T00:57:16;3.90;;;0.90;;
49460;SDS011;35355;49.198;-0.368;2022-09-21T00:59:45;2.60;;;0.52;;
49460;SDS011;35355;49.198;-0.368;2022-09-21T01:02:12;1.17;;;0.40;;
49460;SDS011;35355;49.198;-0.368;2022-09-21T01:04:39;3.00;;;0.45;;
49460;SDS011;35355;49.198;-0.368;2022-09-21T01:07:07;5.38;;;1.13;;
49460;SDS011;35355;49.198;-0.368;2022-09-21T01:09:36;4.13;;;0.57;;
49460;SDS011;35355;49.198;-0.368;2022-09-21T01:20:32;5.38;;;0.40;;
49460;SDS011;35355;49.198;-0.368;2022-09-21T01:23:05;2.05;;;0.70;;
49460;SDS011;35355;49.198;-0.368;2022-09-21T01:31:16;3.13;;;0.60;;
49460;SDS011;35355;49.198;-0.368;2022-09-21T01:33:52;2.50;;;0.70;;
49460;SDS011;35355;49.198;-0.368;2022-09-21T01:36:23;2.00;;;0.60;;
49460;SDS011;35355;49.198;-0.368;2022-09-21T01:39:02;6.20;;;0.77;;
49460;SDS011;35355;49.198;-0.368;2022-09-21T01:41:33;6.95;;;0.90;;
49460;SDS011;35355;49.198;-0.368;2022-09-21T01:44:09;2.63;;;0.70;;
49460;SDS011;35355;49.198;-0.368;2022-09-21T01:46:39;3.72;;;0.68;;
49460;SDS011;35355;49.198;-0.368;2022-09-21T01:49:06;3.40;;;0.40;;
49460;SDS011;35355;49.198;-0.368;2022-09-21T01:51:35;6.00;;;1.00;;
49460;SDS011;35355;49.198;-0.368;2022-09-21T01:54:09;4.32;;;0.60;;
49460;SDS011;35355;49.198;-0.368;2022-09-21T01:59:37;4.47;;;1.02;;
49460;SDS011;35355;49.198;-0.368;2022-09-21T02:02:21;1.30;;;0.63;;
49460;SDS011;35355;49.198;-0.368;2022-09-21T02:04:55;3.15;;;0.77;;
49460;SDS011;35355;49.198;-0.368;2022-09-21T02:07:22;3.97;;;1.25;;
49460;SDS011;35355;49.198;-0.368;2022-09-21T02:09:49;4.30;;;1.05;;
49460;SDS011;35355;49.198;-0.368;2022-09-21T02:12:14;2.97;;;0.80;;
49460;SDS011;35355;49.198;-0.368;2022-09-21T02:14:40;4.03;;;0.70;;
49460;SDS011;35355;49.198;-0.368;2022-09-21T02:20:19;2.22;;;0.90;;
49460;SDS011;35355;49.198;-0.368;2022-09-21T02:23:07;2.60;;;0.55;;
49460;SDS011;35355;49.198;-0.368;2022-09-21T02:25:55;1.48;;;0.40;;
49460;SDS011;35355;49.198;-0.368;2022-09-21T02:36:54;2.08;;;0.70;;
49460;SDS011;35355;49.198;-0.368;2022-09-21T02:39:40;1.45;;;1.05;;
49460;SDS011;35355;49.198;-0.368;2022-09-21T02:42:18;2.92;;;0.50;;
49460;SDS011;35355;49.198;-0.368;2022-09-21T02:45:06;1.20;;;0.57;;
49460;SDS011;35355;49.198;-0.368;2022-09-21T02:50:51;3.28;;;0.85;;
49460;SDS011;35355;49.198;-0.368;2022-09-21T02:53:12;1.75;;;0.70;;
49460;SDS011;35355;49.198;-0.368;2022-09-21T02:55:43;4.85;;;0.40;;
49460;SDS011;35355;49.198;-0.368;2022-09-21T02:58:11;2.45;;;0.52;;
49460;SDS011;35355;49.198;-0.368;2022-09-21T03:00:39;7.13;;;0.90;;
49460;SDS011;35355;49.198;-0.368;2022-09-21T03:03:16;7.13;;;1.17;;
49460;SDS011;35355;49.198;-0.368;2022-09-21T03:05:45;5.70;;;0.73;;
49460;SDS011;35355;49.198;-0.368;2022-09-21T03:08:13;2.97;;;0.85;;
49460;SDS011;35355;49.198;-0.368;2022-09-21T03:10:39;7.22;;;0.88;;
49460;SDS011;35355;49.198;-0.368;2022-09-21T03:13:08;6.18;;;0.88;;
49460;SDS011;35355;49.198;-0.368;2022-09-21T03:15:37;2.70;;;0.60;;
49460;SDS011;35355;49.198;-0.368;2022-09-21T03:18:05;4.40;;;0.68;;
49460;SDS011;35355;49.198;-0.368;2022-09-21T03:20:34;4.25;;;0.80;;
49460;SDS011;35355;49.198;-0.368;2022-09-21T03:23:00;5.05;;;0.80;;
49460;SDS011;35355;49.198;-0.368;2022-09-21T03:25:27;7.38;;;0.80;;
49460;SDS011;35355;49.198;-0.368;2022-09-21T03:27:53;5.38;;;1.08;;
49460;SDS011;35355;49.198;-0.368;2022-09-21T03:30:23;2.75;;;1.15;;
49460;SDS011;35355;49.198;-0.368;2022-09-21T03:32:52;3.92;;;0.60;;
49460;SDS011;35355;49.198;-0.368;2022-09-21T03:35:19;3.13;;;0.77;;
49460;SDS011;35355;49.198;-0.368;2022-09-21T03:37:45;2.08;;;0.95;;
49460;SDS011;35355;49.198;-0.368;2022-09-21T03:40:12;3.92;;;0.55;;
49460;SDS011;35355;49.198;-0.368;2022-09-21T03:42:38;15.18;;;1.00;;
49460;SDS011;35355;49.198;-0.368;2022-09-21T03:45:04;2.63;;;0.45;;
49460;SDS011;35355;49.198;-0.368;2022-09-21T03:47:31;3.30;;;0.77;;
49460;SDS011;35355;49.198;-0.368;2022-09-21T03:49:56;2.85;;;0.73;;
49460;SDS011;35355;49.198;-0.368;2022-09-21T03:52:21;3.50;;;0.90;;
49460;SDS011;35355;49.198;-0.368;2022-09-21T03:54:47;2.30;;;0.85;;
49460;SDS011;35355;49.198;-0.368;2022-09-21T03:57:12;2.60;;;0.70;;
49460;SDS011;35355;49.198;-0.368;2022-09-21T03:59:38;3.13;;;0.70;;
49460;SDS011;35355;49.198;-0.368;2022-09-21T04:02:03;2.13;;;0.80;;
49460;SDS011;35355;49.198;-0.368;2022-09-21T04:04:28;3.28;;;0.88;;
49460;SDS011;35355;49.198;-0.368;2022-09-21T04:06:54;2.35;;;0.77;;
49460;SDS011;35355;49.198;-0.368;2022-09-21T04:09:19;2.33;;;0.75;;
49460;SDS011;35355;49.198;-0.368;2022-09-21T04:11:45;2.28;;;0.75;;
49460;SDS011;35355;49.198;-0.368;2022-09-21T04:14:11;1.73;;;0.75;;
49460;SDS011;35355;49.198;-0.368;2022-09-21T04:16:36;2.45;;;0.77;;
49460;SDS011;35355;49.198;-0.368;2022-09-21T04:19:02;2.60;;;0.40;;
49460;SDS011;35355;49.198;-0.368;2022-09-21T04:21:27;1.83;;;0.50;;
49460;SDS011;35355;49.198;-0.368;2022-09-21T04:23:54;3.80;;;0.70;;
49460;SDS011;35355;49.198;-0.368;2022-09-21T04:26:26;3.47;;;0.80;;
49460;SDS011;35355;49.198;-0.368;2022-09-21T04:28:54;3.60;;;0.63;;
49460;SDS011;35355;49.198;-0.368;2022-09-21T04:31:20;2.22;;;0.52;;
49460;SDS011;35355;49.198;-0.368;2022-09-21T04:33:47;3.45;;;1.27;;
49460;SDS011;35355;49.198;-0.368;2022-09-21T04:36:13;2.10;;;0.70;;
49460;SDS011;35355;49.198;-0.368;2022-09-21T04:38:39;2.85;;;0.90;;
49460;SDS011;35355;49.198;-0.368;2022-09-21T04:41:04;2.03;;;0.63;;
49460;SDS011;35355;49.198;-0.368;2022-09-21T04:43:31;2.45;;;0.77;;
49460;SDS011;35355;49.198;-0.368;2022-09-21T04:45:56;3.88;;;0.70;;
49460;SDS011;35355;49.198;-0.368;2022-09-21T04:48:22;2.17;;;0.88;;
49460;SDS011;35355;49.198;-0.368;2022-09-21T04:50:48;1.98;;;0.93;;
49460;SDS011;35355;49.198;-0.368;2022-09-21T04:53:13;2.33;;;1.00;;
49460;SDS011;35355;49.198;-0.368;2022-09-21T04:55:39;1.60;;;0.70;;
49460;SDS011;35355;49.198;-0.368;2022-09-21T04:58:04;2.30;;;1.25;;
49460;SDS011;35355;49.198;-0.368;2022-09-21T05:00:30;4.60;;;0.68;;
49460;SDS011;35355;49.198;-0.368;2022-09-21T05:02:56;1.83;;;0.85;;
49460;SDS011;35355;49.198;-0.368;2022-09-21T05:05:22;2.78;;;0.60;;
49460;SDS011;35355;49.198;-0.368;2022-09-21T05:07:49;2.83;;;0.60;;
49460;SDS011;35355;49.198;-0.368;2022-09-21T05:10:14;2.50;;;1.25;;
49460;SDS011;35355;49.198;-0.368;2022-09-21T05:12:40;2.17;;;0.70;;
49460;SDS011;35355;49.198;-0.368;2022-09-21T05:15:08;1.95;;;0.77;;
49460;SDS011;35355;49.198;-0.368;2022-09-21T05:17:37;1.90;;;1.10;;
49460;SDS011;35355;49.198;-0.368;2022-09-21T05:20:04;1.92;;;0.85;;
49460;SDS011;35355;49.198;-0.368;2022-09-21T05:40:52;4.65;;;0.70;;
49460;SDS011;35355;49.198;-0.368;2022-09-21T05:43:18;3.03;;;0.95;;
49460;SDS011;35355;49.198;-0.368;2022-09-21T05:45:44;2.08;;;0.90;;
49460;SDS011;35355;49.198;-0.368;2022-09-21T05:48:17;2.22;;;1.08;;
49460;SDS011;35355;49.198;-0.368;2022-09-21T05:50:52;2.38;;;1.02;;
49460;SDS011;35355;49.198;-0.368;2022-09-21T05:58:57;3.67;;;1.02;;
49460;SDS011;35355;49.198;-0.368;2022-09-21T06:04:11;2.75;;;1.35;;
49460;SDS011;35355;49.198;-0.368;2022-09-21T06:06:37;1.90;;;0.80;;
49460;SDS011;35355;49.198;-0.368;2022-09-21T06:09:03;3.80;;;1.38;;
49460;SDS011;35355;49.198;-0.368;2022-09-21T06:11:29;5.10;;;1.00;;
49460;SDS011;35355;49.198;-0.368;2022-09-21T06:13:55;4.45;;;1.30;;
49460;SDS011;35355;49.198;-0.368;2022-09-21T06:16:21;1.80;;;0.90;;
49460;SDS011;35355;49.198;-0.368;2022-09-21T06:18:46;2.58;;;0.85;;
49460;SDS011;35355;49.198;-0.368;2022-09-21T06:21:12;5.43;;;1.25;;
49460;SDS011;35355;49.198;-0.368;2022-09-21T06:23:37;6.30;;;1.63;;
49460;SDS011;35355;49.198;-0.368;2022-09-21T06:26:02;3.70;;;1.95;;
49460;SDS011;35355;49.198;-0.368;2022-09-21T06:28:28;3.70;;;0.88;;
49460;SDS011;35355;49.198;-0.368;2022-09-21T06:30:54;6.45;;;1.00;;
49460;SDS011;35355;49.198;-0.368;2022-09-21T06:33:21;8.63;;;1.40;;
49460;SDS011;35355;49.198;-0.368;2022-09-21T06:35:51;12.15;;;1.88;;
49460;SDS011;35355;49.198;-0.368;2022-09-21T06:38:17;4.60;;;1.40;;
49460;SDS011;35355;49.198;-0.368;2022-09-21T06:40:42;7.10;;;1.65;;
49460;SDS011;35355;49.198;-0.368;2022-09-21T06:43:07;6.95;;;2.03;;
49460;SDS011;35355;49.198;-0.368;2022-09-21T06:45:33;7.28;;;1.60;;
49460;SDS011;35355;49.198;-0.368;2022-09-21T06:47:58;5.47;;;1.80;;
49460;SDS011;35355;49.198;-0.368;2022-09-21T06:50:23;2.83;;;1.45;;
49460;SDS011;35355;49.198;-0.368;2022-09-21T06:52:49;14.25;;;1.85;;
49460;SDS011;35355;49.198;-0.368;2022-09-21T06:55:15;4.90;;;1.48;;
49460;SDS011;35355;49.198;-0.368;2022-09-21T06:57:41;4.60;;;1.52;;
49460;SDS011;35355;49.198;-0.368;2022-09-21T07:00:08;6.50;;;1.70;;
49460;SDS011;35355;49.198;-0.368;2022-09-21T07:02:35;5.63;;;1.77;;
49460;SDS011;35355;49.198;-0.368;2022-09-21T07:05:00;5.40;;;1.98;;
49460;SDS011;35355;49.198;-0.368;2022-09-21T07:07:27;4.80;;;1.80;;
49460;SDS011;35355;49.198;-0.368;2022-09-21T07:09:56;10.77;;;2.45;;
49460;SDS011;35355;49.198;-0.368;2022-09-21T07:12:23;4.97;;;2.03;;
49460;SDS011;35355;49.198;-0.368;2022-09-21T07:14:49;7.55;;;2.42;;
49460;SDS011;35355;49.198;-0.368;2022-09-21T07:17:14;5.80;;;2.00;;
49460;SDS011;35355;49.198;-0.368;2022-09-21T07:19:40;4.18;;;1.90;;
49460;SDS011;35355;49.198;-0.368;2022-09-21T07:22:05;8.77;;;1.95;;
49460;SDS011;35355;49.198;-0.368;2022-09-21T07:24:31;7.40;;;1.52;;
49460;SDS011;35355;49.198;-0.368;2022-09-21T07:26:57;9.27;;;1.90;;
49460;SDS011;35355;49.198;-0.368;2022-09-21T07:29:22;11.02;;;2.03;;
49460;SDS011;35355;49.198;-0.368;2022-09-21T07:31:48;3.17;;;1.67;;
49460;SDS011;35355;49.198;-0.368;2022-09-21T07:34:13;6.20;;;1.52;;
49460;SDS011;35355;49.198;-0.368;2022-09-21T07:36:39;3.30;;;1.83;;
49460;SDS011;35355;49.198;-0.368;2022-09-21T07:39:04;7.82;;;2.40;;
49460;SDS011;35355;49.198;-0.368;2022-09-21T07:41:30;11.35;;;2.40;;
49460;SDS011;35355;49.198;-0.368;2022-09-21T07:43:58;5.80;;;1.55;;
49460;SDS011;35355;49.198;-0.368;2022-09-21T07:46:23;3.53;;;1.88;;
49460;SDS011;35355;49.198;-0.368;2022-09-21T07:48:51;4.90;;;1.55;;
49460;SDS011;35355;49.198;-0.368;2022-09-21T07:51:18;9.27;;;2.53;;
49460;SDS011;35355;49.198;-0.368;2022-09-21T07:53:43;5.75;;;1.80;;
49460;SDS011;35355;49.198;-0.368;2022-09-21T07:56:13;8.10;;;2.78;;
49460;SDS011;35355;49.198;-0.368;2022-09-21T07:58:40;12.02;;;2.47;;
49460;SDS011;35355;49.198;-0.368;2022-09-21T08:01:25;6.13;;;1.92;;
49460;SDS011;35355;49.198;-0.368;2022-09-21T08:03:52;9.15;;;2.20;;
49460;SDS011;35355;49.198;-0.368;2022-09-21T08:06:19;8.93;;;1.83;;
49460;SDS011;35355;49.198;-0.368;2022-09-21T08:08:45;6.78;;;2.08;;
49460;SDS011;35355;49.198;-0.368;2022-09-21T08:11:14;8.52;;;2.00;;
49460;SDS011;35355;49.198;-0.368;2022-09-21T08:13:41;5.88;;;1.90;;
49460;SDS011;35355;49.198;-0.368;2022-09-21T08:16:06;14.30;;;2.67;;
49460;SDS011;35355;49.198;-0.368;2022-09-21T08:18:34;7.95;;;2.30;;
49460;SDS011;35355;49.198;-0.368;2022-09-21T08:21:01;8.18;;;1.70;;
49460;SDS011;35355;49.198;-0.368;2022-09-21T08:23:26;9.98;;;2.13;;
49460;SDS011;35355;49.198;-0.368;2022-09-21T08:25:57;9.82;;;2.22;;
49460;SDS011;35355;49.198;-0.368;2022-09-21T08:28:27;9.90;;;2.17;;
49460;SDS011;35355;49.198;-0.368;2022-09-21T08:30:57;4.47;;;2.83;;
49460;SDS011;35355;49.198;-0.368;2022-09-21T08:33:32;8.00;;;2.35;;
49460;SDS011;35355;49.198;-0.368;2022-09-21T08:35:58;6.15;;;2.47;;
49460;SDS011;35355;49.198;-0.368;2022-09-21T08:38:25;9.18;;;2.47;;
49460;SDS011;35355;49.198;-0.368;2022-09-21T08:40:50;9.48;;;2.08;;
49460;SDS011;35355;49.198;-0.368;2022-09-21T08:43:35;11.20;;;2.63;;
49460;SDS011;35355;49.198;-0.368;2022-09-21T08:46:06;10.05;;;1.65;;
49460;SDS011;35355;49.198;-0.368;2022-09-21T08:48:41;10.23;;;2.25;;
49460;SDS011;35355;49.198;-0.368;2022-09-21T08:51:12;6.88;;;2.15;;
49460;SDS011;35355;49.198;-0.368;2022-09-21T08:53:50;5.88;;;2.10;;
49460;SDS011;35355;49.198;-0.368;2022-09-21T08:56:20;7.38;;;2.30;;
49460;SDS011;35355;49.198;-0.368;2022-09-21T08:58:47;9.60;;;2.38;;
49460;SDS011;35355;49.198;-0.368;2022-09-21T09:06:23;8.07;;;2.33;;
49460;SDS011;35355;49.198;-0.368;2022-09-21T09:14:52;9.63;;;2.15;;
49460;SDS011;35355;49.198;-0.368;2022-09-21T09:20:31;7.25;;;2.67;;
49460;SDS011;35355;49.198;-0.368;2022-09-21T09:23:23;13.95;;;2.22;;
49460;SDS011;35355;49.198;-0.368;2022-09-21T09:28:58;6.95;;;1.60;;
49460;SDS011;35355;49.198;-0.368;2022-09-21T09:31:35;12.57;;;1.90;;
49460;SDS011;35355;49.198;-0.368;2022-09-21T09:34:12;7.90;;;1.92;;
49460;SDS011;35355;49.198;-0.368;2022-09-21T09:36:43;6.80;;;1.42;;
49460;SDS011;35355;49.198;-0.368;2022-09-21T09:39:13;5.45;;;1.13;;
49460;SDS011;35355;49.198;-0.368;2022-09-21T09:47:25;4.53;;;1.45;;
49460;SDS011;35355;49.198;-0.368;2022-09-21T09:52:43;4.40;;;1.15;;
49460;SDS011;35355;49.198;-0.368;2022-09-21T09:55:16;7.45;;;1.05;;
49460;SDS011;35355;49.198;-0.368;2022-09-21T09:57:46;7.00;;;1.63;;
49460;SDS011;35355;49.198;-0.368;2022-09-21T10:00:14;8.13;;;1.20;;
49460;SDS011;35355;49.198;-0.368;2022-09-21T10:02:59;4.03;;;0.93;;
49460;SDS011;35355;49.198;-0.368;2022-09-21T10:07:58;4.75;;;0.98;;
49460;SDS011;35355;49.198;-0.368;2022-09-21T10:12:52;6.28;;;0.93;;
49460;SDS011;35355;49.198;-0.368;2022-09-21T10:15:19;3.58;;;1.10;;
49460;SDS011;35355;49.198;-0.368;2022-09-21T10:17:48;5.72;;;0.88;;
49460;SDS011;35355;49.198;-0.368;2022-09-21T10:20:24;3.88;;;0.30;;
49460;SDS011;35355;49.198;-0.368;2022-09-21T10:22:52;3.17;;;0.68;;
49460;SDS011;35355;49.198;-0.368;2022-09-21T10:25:19;4.57;;;0.60;;
49460;SDS011;35355;49.198;-0.368;2022-09-21T10:27:48;4.05;;;0.75;;
49460;SDS011;35355;49.198;-0.368;2022-09-21T10:33:02;3.33;;;0.50;;
49460;SDS011;35355;49.198;-0.368;2022-09-21T10:35:48;5.18;;;0.75;;
49460;SDS011;35355;49.198;-0.368;2022-09-21T10:38:20;4.65;;;1.17;;
49460;SDS011;35355;49.198;-0.368;2022-09-21T10:40:53;10.63;;;1.50;;
49460;SDS011;35355;49.198;-0.368;2022-09-21T10:43:23;20.35;;;2.63;;
49460;SDS011;35355;49.198;-0.368;2022-09-21T10:45:54;12.15;;;1.40;;
49460;SDS011;35355;49.198;-0.368;2022-09-21T10:48:22;9.05;;;1.50;;
49460;SDS011;35355;49.198;-0.368;2022-09-21T10:50:49;12.00;;;1.98;;
49460;SDS011;35355;49.198;-0.368;2022-09-21T10:58:31;2.05;;;0.60;;
49460;SDS011;35355;49.198;-0.368;2022-09-21T11:01:11;5.10;;;0.75;;
49460;SDS011;35355;49.198;-0.368;2022-09-21T11:09:10;3.65;;;0.50;;
49460;SDS011;35355;49.198;-0.368;2022-09-21T11:14:52;4.63;;;0.60;;
49460;SDS011;35355;49.198;-0.368;2022-09-21T11:25:49;4.18;;;0.75;;
49460;SDS011;35355;49.198;-0.368;2022-09-21T11:28:29;5.22;;;1.10;;
49460;SDS011;35355;49.198;-0.368;2022-09-21T11:39:29;2.90;;;0.50;;
49460;SDS011;35355;49.198;-0.368;2022-09-21T11:45:02;1.48;;;0.32;;
49460;SDS011;35355;49.198;-0.368;2022-09-21T12:06:49;1.30;;;0.37;;
49460;SDS011;35355;49.198;-0.368;2022-09-21T12:12:31;2.30;;;0.30;;
49460;SDS011;35355;49.198;-0.368;2022-09-21T12:23:25;1.75;;;0.93;;
49460;SDS011;35355;49.198;-0.368;2022-09-21T12:25:59;3.00;;;0.65;;
49460;SDS011;35355;49.198;-0.368;2022-09-21T12:28:35;5.28;;;0.50;;
49460;SDS011;35355;49.198;-0.368;2022-09-21T12:31:17;0.77;;;0.10;;
49460;SDS011;35355;49.198;-0.368;2022-09-21T12:34:30;4.80;;;0.30;;
49460;SDS011;35355;49.198;-0.368;2022-09-21T12:39:20;1.00;;;0.32;;
49460;SDS011;35355;49.198;-0.368;2022-09-21T12:41:54;1.27;;;0.20;;
49460;SDS011;35355;49.198;-0.368;2022-09-21T12:50:00;2.50;;;0.22;;
49460;SDS011;35355;49.198;-0.368;2022-09-21T12:52:29;0.93;;;0.20;;
49460;SDS011;35355;49.198;-0.368;2022-09-21T13:00:21;5.05;;;0.32;;
49460;SDS011;35355;49.198;-0.368;2022-09-21T13:02:59;28.48;;;1.55;;
49460;SDS011;35355;49.198;-0.368;2022-09-21T13:06:02;5.75;;;0.93;;
49460;SDS011;35355;49.198;-0.368;2022-09-21T13:08:42;10.48;;;0.98;;
49460;SDS011;35355;49.198;-0.368;2022-09-21T13:11:10;8.32;;;0.55;;
49460;SDS011;35355;49.198;-0.368;2022-09-21T13:13:37;4.70;;;0.60;;
49460;SDS011;35355;49.198;-0.368;2022-09-21T13:16:20;1.77;;;0.22;;
49460;SDS011;35355;49.198;-0.368;2022-09-21T13:18:59;2.08;;;0.35;;
49460;SDS011;35355;49.198;-0.368;2022-09-21T13:21:28;3.08;;;0.65;;
49460;SDS011;35355;49.198;-0.368;2022-09-21T13:24:03;1.52;;;0.38;;
49460;SDS011;35355;49.198;-0.368;2022-09-21T13:26:38;0.80;;;0.40;;
49460;SDS011;35355;49.198;-0.368;2022-09-21T13:29:24;4.55;;;0.43;;
49460;SDS011;35355;49.198;-0.368;2022-09-21T13:34:38;3.13;;;0.50;;
49460;SDS011;35355;49.198;-0.368;2022-09-21T13:47:42;3.22;;;1.00;;
49460;SDS011;35355;49.198;-0.368;2022-09-21T13:50:18;3.67;;;0.75;;
49460;SDS011;35355;49.198;-0.368;2022-09-21T14:11:03;2.50;;;0.40;;
49460;SDS011;35355;49.198;-0.368;2022-09-21T14:13:33;0.32;;;0.10;;
49460;SDS011;35355;49.198;-0.368;2022-09-21T14:21:39;0.70;;;0.38;;
49460;SDS011;35355;49.198;-0.368;2022-09-21T14:27:31;3.35;;;0.47;;
49460;SDS011;35355;49.198;-0.368;2022-09-21T14:32:41;3.05;;;0.43;;
49460;SDS011;35355;49.198;-0.368;2022-09-21T14:35:18;1.55;;;0.30;;
49460;SDS011;35355;49.198;-0.368;2022-09-21T14:37:48;1.58;;;0.35;;
49460;SDS011;35355;49.198;-0.368;2022-09-21T14:43:26;8.23;;;0.70;;
49460;SDS011;35355;49.198;-0.368;2022-09-21T15:00:39;5.68;;;1.10;;
49460;SDS011;35355;49.198;-0.368;2022-09-21T15:03:22;3.63;;;0.68;;
49460;SDS011;35355;49.198;-0.368;2022-09-21T15:05:56;4.43;;;0.65;;
49460;SDS011;35355;49.198;-0.368;2022-09-21T15:12:16;3.47;;;0.80;;
49460;SDS011;35355;49.198;-0.368;2022-09-21T15:14:46;3.67;;;0.75;;
49460;SDS011;35355;49.198;-0.368;2022-09-21T15:17:24;2.25;;;0.30;;
49460;SDS011;35355;49.198;-0.368;2022-09-21T15:19:55;0.93;;;0.40;;
49460;SDS011;35355;49.198;-0.368;2022-09-21T15:22:27;1.08;;;0.30;;
49460;SDS011;35355;49.198;-0.368;2022-09-21T15:24:57;2.15;;;0.40;;
49460;SDS011;35355;49.198;-0.368;2022-09-21T15:27:28;2.45;;;0.40;;
49460;SDS011;35355;49.198;-0.368;2022-09-21T15:29:57;3.58;;;0.75;;
49460;SDS011;35355;49.198;-0.368;2022-09-21T15:32:39;2.85;;;0.70;;
49460;SDS011;35355;49.198;-0.368;2022-09-21T15:35:21;2.63;;;0.70;;
49460;SDS011;35355;49.198;-0.368;2022-09-21T15:37:55;3.83;;;0.73;;
49460;SDS011;35355;49.198;-0.368;2022-09-21T15:40:28;3.42;;;1.13;;
49460;SDS011;35355;49.198;-0.368;2022-09-21T15:45:26;9.73;;;1.17;;
49460;SDS011;35355;49.198;-0.368;2022-09-21T15:47:58;2.88;;;1.00;;
49460;SDS011;35355;49.198;-0.368;2022-09-21T15:50:24;2.00;;;1.13;;
49460;SDS011;35355;49.198;-0.368;2022-09-21T15:52:53;3.22;;;0.73;;
49460;SDS011;35355;49.198;-0.368;2022-09-21T15:55:30;4.47;;;0.80;;
49460;SDS011;35355;49.198;-0.368;2022-09-21T15:57:57;1.52;;;0.63;;
49460;SDS011;35355;49.198;-0.368;2022-09-21T16:00:31;1.70;;;0.80;;
49460;SDS011;35355;49.198;-0.368;2022-09-21T16:05:45;4.88;;;1.17;;
49460;SDS011;35355;49.198;-0.368;2022-09-21T16:08:19;6.40;;;0.77;;
49460;SDS011;35355;49.198;-0.368;2022-09-21T16:17:03;2.75;;;0.85;;
49460;SDS011;35355;49.198;-0.368;2022-09-21T16:22:12;2.80;;;0.80;;
49460;SDS011;35355;49.198;-0.368;2022-09-21T16:24:45;6.82;;;1.15;;
49460;SDS011;35355;49.198;-0.368;2022-09-21T16:27:16;8.90;;;1.00;;
49460;SDS011;35355;49.198;-0.368;2022-09-21T16:29:44;1.70;;;0.70;;
49460;SDS011;35355;49.198;-0.368;2022-09-21T16:34:47;3.40;;;0.80;;
49460;SDS011;35355;49.198;-0.368;2022-09-21T16:39:53;2.67;;;0.85;;
49460;SDS011;35355;49.198;-0.368;2022-09-21T16:42:20;2.10;;;0.90;;
49460;SDS011;35355;49.198;-0.368;2022-09-21T16:44:57;6.63;;;0.85;;
49460;SDS011;35355;49.198;-0.368;2022-09-21T16:47:25;2.88;;;0.70;;
49460;SDS011;35355;49.198;-0.368;2022-09-21T16:49:52;1.88;;;0.90;;
49460;SDS011;35355;49.198;-0.368;2022-09-21T16:52:23;4.90;;;0.98;;
49460;SDS011;35355;49.198;-0.368;2022-09-21T16:54:52;3.80;;;0.57;;
49460;SDS011;35355;49.198;-0.368;2022-09-21T16:57:19;3.88;;;0.88;;
49460;SDS011;35355;49.198;-0.368;2022-09-21T16:59:45;0.70;;;0.40;;
49460;SDS011;35355;49.198;-0.368;2022-09-21T17:02:11;2.15;;;0.88;;
49460;SDS011;35355;49.198;-0.368;2022-09-21T17:04:38;3.10;;;0.50;;
49460;SDS011;35355;49.198;-0.368;2022-09-21T17:07:13;2.38;;;0.55;;
49460;SDS011;35355;49.198;-0.368;2022-09-21T17:09:41;4.88;;;1.20;;
49460;SDS011;35355;49.198;-0.368;2022-09-21T17:12:11;1.65;;;0.50;;
49460;SDS011;35355;49.198;-0.368;2022-09-21T17:14:39;1.88;;;0.60;;
49460;SDS011;35355;49.198;-0.368;2022-09-21T17:17:23;1.00;;;0.55;;
49460;SDS011;35355;49.198;-0.368;2022-09-21T17:19:50;2.70;;;0.90;;
49460;SDS011;35355;49.198;-0.368;2022-09-21T17:22:17;1.30;;;0.57;;
49460;SDS011;35355;49.198;-0.368;2022-09-21T17:24:47;2.85;;;0.70;;
49460;SDS011;35355;49.198;-0.368;2022-09-21T17:27:14;10.63;;;1.33;;
49460;SDS011;35355;49.198;-0.368;2022-09-21T17:29:44;1.13;;;0.30;;
49460;SDS011;35355;49.198;-0.368;2022-09-21T17:32:14;1.02;;;0.50;;
49460;SDS011;35355;49.198;-0.368;2022-09-21T17:34:44;0.98;;;0.50;;
49460;SDS011;35355;49.198;-0.368;2022-09-21T17:37:10;8.32;;;0.80;;
49460;SDS011;35355;49.198;-0.368;2022-09-21T17:39:42;1.45;;;0.45;;
49460;SDS011;35355;49.198;-0.368;2022-09-21T17:47:32;4.10;;;1.52;;
49460;SDS011;35355;49.198;-0.368;2022-09-21T17:50:01;2.13;;;0.47;;
49460;SDS011;35355;49.198;-0.368;2022-09-21T17:52:33;3.67;;;0.30;;
49460;SDS011;35355;49.198;-0.368;2022-09-21T17:55:17;2.72;;;0.68;;
49460;SDS011;35355;49.198;-0.368;2022-09-21T18:00:16;2.72;;;0.73;;
49460;SDS011;35355;49.198;-0.368;2022-09-21T18:02:44;1.02;;;0.50;;
49460;SDS011;35355;49.198;-0.368;2022-09-21T18:05:21;4.97;;;1.00;;
49460;SDS011;35355;49.198;-0.368;2022-09-21T18:07:50;2.35;;;0.70;;
49460;SDS011;35355;49.198;-0.368;2022-09-21T18:10:18;1.38;;;0.50;;
49460;SDS011;35355;49.198;-0.368;2022-09-21T18:21:12;4.38;;;0.40;;
49460;SDS011;35355;49.198;-0.368;2022-09-21T18:23:59;1.73;;;0.73;;
49460;SDS011;35355;49.198;-0.368;2022-09-21T18:26:33;2.20;;;0.90;;
49460;SDS011;35355;49.198;-0.368;2022-09-21T18:29:00;3.22;;;0.80;;
49460;SDS011;35355;49.198;-0.368;2022-09-21T18:34:20;2.50;;;0.63;;
49460;SDS011;35355;49.198;-0.368;2022-09-21T18:37:08;5.07;;;0.50;;
49460;SDS011;35355;49.198;-0.368;2022-09-21T18:39:53;5.63;;;0.90;;
49460;SDS011;35355;49.198;-0.368;2022-09-21T18:42:36;2.35;;;0.57;;
49460;SDS011;35355;49.198;-0.368;2022-09-21T18:45:11;1.90;;;0.70;;
49460;SDS011;35355;49.198;-0.368;2022-09-21T18:52:53;2.58;;;0.65;;
49460;SDS011;35355;49.198;-0.368;2022-09-21T18:55:30;0.93;;;0.50;;
49460;SDS011;35355;49.198;-0.368;2022-09-21T18:57:57;1.23;;;0.43;;
49460;SDS011;35355;49.198;-0.368;2022-09-21T19:00:25;3.42;;;0.65;;
49460;SDS011;35355;49.198;-0.368;2022-09-21T19:02:55;2.28;;;1.02;;
49460;SDS011;35355;49.198;-0.368;2022-09-21T19:05:24;2.55;;;0.73;;
49460;SDS011;35355;49.198;-0.368;2022-09-21T19:07:53;1.80;;;0.30;;
49460;SDS011;35355;49.198;-0.368;2022-09-21T19:10:23;3.75;;;0.50;;
49460;SDS011;35355;49.198;-0.368;2022-09-21T19:13:25;4.00;;;0.52;;
49460;SDS011;35355;49.198;-0.368;2022-09-21T19:29:24;2.10;;;0.63;;
49460;SDS011;35355;49.198;-0.368;2022-09-21T19:32:12;3.83;;;0.52;;
49460;SDS011;35355;49.198;-0.368;2022-09-21T19:34:42;4.85;;;1.00;;
49460;SDS011;35355;49.198;-0.368;2022-09-21T19:37:07;5.65;;;1.30;;
49460;SDS011;35355;49.198;-0.368;2022-09-21T19:39:33;3.42;;;0.80;;
49460;SDS011;35355;49.198;-0.368;2022-09-21T19:42:06;2.17;;;0.80;;
49460;SDS011;35355;49.198;-0.368;2022-09-21T19:47:21;3.00;;;0.68;;
49460;SDS011;35355;49.198;-0.368;2022-09-21T19:49:50;2.45;;;0.60;;